Time;durP1;ratioP1;P1;durP2;ratioP2;P2;SDS_P1;SDS_P2;PMS_P1;PMS_P2;Temp;Humidity;BMP_temperature;BMP_pressure;BME280_temperature;BME280_humidity;BME280_pressure;Samples;Min_cycle;Max_cycle;Signal;HPM_P1;HPM_P2
2022/06/11 00:01:23;;;;;;;7.33;3.40;;;17.50;69.30;;;;;;4860567;29;20483;-71
2022/06/11 00:03:55;;;;;;;6.00;3.50;;;17.50;69.30;;;;;;4882068;29;20458;-71
2022/06/11 00:06:25;;;;;;;8.43;3.50;;;17.50;69.40;;;;;;4878514;29;20459;-71
2022/06/11 00:08:54;;;;;;;6.47;3.73;;;17.50;69.40;;;;;;4872125;29;21006;-72
2022/06/11 00:11:23;;;;;;;6.70;3.40;;;17.50;69.50;;;;;;4873067;29;20470;-72
2022/06/11 00:13:52;;;;;;;6.47;3.40;;;17.50;69.50;;;;;;4875372;29;20827;-71
2022/06/11 00:16:24;;;;;;;5.80;3.03;;;17.50;69.50;;;;;;4878846;29;21019;-71
2022/06/11 00:18:55;;;;;;;5.20;3.47;;;17.50;69.50;;;;;;4880788;29;20479;-72
2022/06/11 00:21:24;;;;;;;6.50;3.53;;;17.50;69.60;;;;;;4882357;29;21189;-73
2022/06/11 00:23:53;;;;;;;6.47;3.40;;;17.50;69.60;;;;;;4880312;29;20458;-72
2022/06/11 00:26:22;;;;;;;4.80;2.90;;;17.50;69.60;;;;;;4877749;29;20824;-73
2022/06/11 00:28:50;;;;;;;8.43;3.17;;;17.50;69.60;;;;;;4878343;29;20479;-71
2022/06/11 00:31:19;;;;;;;5.90;3.13;;;17.50;69.70;;;;;;4876014;29;20850;-72
2022/06/11 00:33:48;;;;;;;6.83;3.00;;;17.40;69.70;;;;;;4883996;29;20808;-71
2022/06/11 00:36:18;;;;;;;6.93;3.00;;;17.40;69.70;;;;;;4883210;29;20487;-71
2022/06/11 00:38:47;;;;;;;6.37;3.10;;;17.40;69.80;;;;;;4867942;29;20484;-72
2022/06/11 00:41:17;;;;;;;5.23;3.50;;;17.40;69.90;;;;;;4880598;29;20518;-72
2022/06/11 00:43:45;;;;;;;6.50;3.20;;;17.40;69.90;;;;;;4881588;29;20559;-72
2022/06/11 00:46:49;;;;;;;5.40;3.27;;;17.30;70.00;;;;;;4879489;29;20909;-72
2022/06/11 00:49:39;;;;;;;10.13;4.33;;;17.40;70.00;;;;;;4874498;29;20487;-73
2022/06/11 00:52:28;;;;;;;6.90;4.13;;;17.30;70.00;;;;;;4876211;29;20469;-72
2022/06/11 00:55:04;;;;;;;6.47;4.47;;;17.30;70.10;;;;;;4869535;29;20541;-73
2022/06/11 00:57:37;;;;;;;5.10;3.30;;;17.30;70.10;;;;;;4863186;29;20567;-71
2022/06/11 01:00:12;;;;;;;6.60;3.67;;;17.30;70.20;;;;;;4880538;29;20493;-72
2022/06/11 01:02:40;;;;;;;6.30;3.73;;;17.30;70.30;;;;;;4879163;29;20857;-72
2022/06/11 01:05:15;;;;;;;7.13;3.60;;;17.30;70.30;;;;;;4880711;29;21070;-72
2022/06/11 01:08:14;;;;;;;5.77;3.80;;;17.30;70.20;;;;;;4877140;29;20463;-72
2022/06/11 01:11:01;;;;;;;6.50;3.83;;;17.30;70.30;;;;;;4882739;29;20510;-71
2022/06/11 01:13:35;;;;;;;6.30;3.97;;;17.20;70.30;;;;;;4880010;29;20964;-72
2022/06/11 01:16:07;;;;;;;6.37;3.73;;;17.20;70.30;;;;;;4871097;29;20494;-72
2022/06/11 01:18:46;;;;;;;6.20;3.47;;;17.20;70.30;;;;;;4875173;29;20474;-72
2022/06/11 01:21:26;;;;;;;6.60;4.40;;;17.10;70.30;;;;;;4875600;29;20465;-72
2022/06/11 01:24:25;;;;;;;6.30;3.80;;;17.10;70.40;;;;;;4873825;29;20470;-71
2022/06/11 01:27:23;;;;;;;8.03;3.83;;;17.10;70.40;;;;;;4874848;29;20818;-73
2022/06/11 01:29:58;;;;;;;6.77;3.87;;;17.00;70.50;;;;;;4874288;29;20481;-71
2022/06/11 01:32:48;;;;;;;8.10;3.10;;;17.00;70.40;;;;;;4862285;29;21047;-72
2022/06/11 01:35:25;;;;;;;6.03;3.00;;;17.00;70.30;;;;;;4876279;29;20471;-71
2022/06/11 01:38:02;;;;;;;7.70;4.17;;;16.90;70.20;;;;;;4865459;29;20496;-72
2022/06/11 01:40:38;;;;;;;5.93;3.33;;;16.80;70.40;;;;;;4873663;29;20465;-72
2022/06/11 01:43:17;;;;;;;6.80;3.63;;;16.80;70.40;;;;;;4876760;29;20459;-72
2022/06/11 01:45:49;;;;;;;6.00;4.20;;;16.70;70.40;;;;;;4858600;29;20480;-72
2022/06/11 01:48:22;;;;;;;6.40;3.40;;;16.70;70.40;;;;;;4873200;29;20451;-71
2022/06/11 01:50:55;;;;;;;6.57;3.63;;;16.60;70.50;;;;;;4880132;29;20477;-72
2022/06/11 01:53:43;;;;;;;7.23;3.70;;;16.60;70.50;;;;;;4878573;29;20467;-72
2022/06/11 01:56:26;;;;;;;6.00;3.50;;;16.50;70.70;;;;;;4875911;29;20460;-72
2022/06/11 01:59:16;;;;;;;5.97;3.57;;;16.50;70.80;;;;;;4881224;29;20486;-72
2022/06/11 02:01:58;;;;;;;7.40;3.73;;;16.50;70.90;;;;;;4860544;29;20472;-72
2022/06/11 02:04:36;;;;;;;7.73;4.77;;;16.50;70.90;;;;;;4857398;29;20481;-72
2022/06/11 02:07:13;;;;;;;9.47;4.97;;;16.50;70.80;;;;;;4869430;29;20455;-72
2022/06/11 02:09:50;;;;;;;6.43;3.60;;;16.50;70.80;;;;;;4877110;29;20613;-72
2022/06/11 02:12:24;;;;;;;11.23;4.53;;;16.50;70.90;;;;;;4882681;29;20463;-72
2022/06/11 02:14:55;;;;;;;6.90;3.87;;;16.40;71.00;;;;;;4879074;29;20464;-71
2022/06/11 02:17:29;;;;;;;6.30;3.60;;;16.50;70.90;;;;;;4869765;29;20490;-72
2022/06/11 02:20:01;;;;;;;6.70;3.33;;;16.50;71.00;;;;;;4878624;29;20489;-71
2022/06/11 02:22:33;;;;;;;11.80;4.63;;;16.50;71.00;;;;;;4869637;29;20479;-71
2022/06/11 02:25:06;;;;;;;6.20;3.77;;;16.40;70.80;;;;;;4873731;29;20474;-71
2022/06/11 02:27:36;;;;;;;5.37;3.63;;;16.40;70.90;;;;;;4871271;29;20455;-72
2022/06/11 02:30:09;;;;;;;8.33;4.50;;;16.40;70.90;;;;;;4884404;29;20501;-70
2022/06/11 02:32:38;;;;;;;6.33;4.07;;;16.40;70.90;;;;;;4878058;29;20914;-72
2022/06/11 02:35:11;;;;;;;6.40;3.80;;;16.40;70.80;;;;;;4876600;29;20801;-72
2022/06/11 02:37:41;;;;;;;7.53;4.07;;;16.30;70.80;;;;;;4862025;29;20480;-72
2022/06/11 02:40:13;;;;;;;8.33;4.03;;;16.30;70.80;;;;;;4863015;29;20490;-72
2022/06/11 02:42:41;;;;;;;7.70;3.73;;;16.30;70.70;;;;;;4874705;29;20483;-73
2022/06/11 02:45:12;;;;;;;6.80;3.83;;;16.20;70.80;;;;;;4876136;29;21172;-72
2022/06/11 02:47:43;;;;;;;6.97;4.20;;;16.20;70.80;;;;;;4884086;29;20459;-72
2022/06/11 02:50:18;;;;;;;9.13;4.83;;;16.10;70.90;;;;;;4879281;29;20482;-73
2022/06/11 02:52:46;;;;;;;9.30;4.30;;;16.10;70.90;;;;;;4879426;29;20463;-71
2022/06/11 02:55:14;;;;;;;8.17;3.80;;;16.10;71.00;;;;;;4880503;29;20491;-72
2022/06/11 02:57:43;;;;;;;7.40;3.70;;;16.10;71.00;;;;;;4879292;29;21020;-72
2022/06/11 03:00:15;;;;;;;6.43;4.17;;;16.10;71.00;;;;;;4872615;29;20850;-72
2022/06/11 03:02:48;;;;;;;6.10;3.50;;;16.00;70.90;;;;;;4874316;29;20464;-70
2022/06/11 03:05:19;;;;;;;7.67;4.10;;;15.90;70.80;;;;;;4870122;29;20470;-71
2022/06/11 03:07:48;;;;;;;6.80;4.50;;;15.80;70.80;;;;;;4884532;29;20462;-70
2022/06/11 03:10:19;;;;;;;7.10;3.97;;;15.80;70.90;;;;;;4879819;29;21017;-72
2022/06/11 03:12:47;;;;;;;9.03;4.27;;;15.70;70.90;;;;;;4882458;29;20474;-71
2022/06/11 03:15:17;;;;;;;8.90;4.73;;;15.70;71.10;;;;;;4878608;29;20465;-71
2022/06/11 03:17:48;;;;;;;7.00;4.43;;;15.70;71.20;;;;;;4873309;29;20494;-71
2022/06/11 03:20:17;;;;;;;15.93;4.63;;;15.60;71.20;;;;;;4874654;29;20505;-73
2022/06/11 03:22:46;;;;;;;9.07;4.77;;;15.60;71.20;;;;;;4874235;29;20575;-72
2022/06/11 03:25:14;;;;;;;7.93;4.53;;;15.60;71.40;;;;;;4865056;29;20469;-72
2022/06/11 03:27:42;;;;;;;7.50;3.87;;;15.60;71.50;;;;;;4878845;29;20497;-71
2022/06/11 03:30:12;;;;;;;8.63;4.23;;;15.70;71.50;;;;;;4876293;29;20565;-70
2022/06/11 03:32:40;;;;;;;9.20;3.67;;;15.70;71.40;;;;;;4880819;29;20549;-72
2022/06/11 03:35:10;;;;;;;10.83;4.00;;;15.70;71.40;;;;;;4877624;29;20462;-71
2022/06/11 03:37:39;;;;;;;7.27;3.80;;;15.60;71.30;;;;;;4879757;29;20488;-71
2022/06/11 03:40:09;;;;;;;6.93;4.00;;;15.60;71.30;;;;;;4878280;29;20493;-71
2022/06/11 03:42:37;;;;;;;6.10;3.83;;;15.60;71.20;;;;;;4862533;29;20459;-72
2022/06/11 03:45:06;;;;;;;7.80;4.00;;;15.60;71.20;;;;;;4878192;29;20478;-71
2022/06/11 03:47:36;;;;;;;7.90;4.20;;;15.60;71.30;;;;;;4878381;29;20471;-71
2022/06/11 03:50:05;;;;;;;9.00;4.17;;;15.60;71.30;;;;;;4887115;29;20485;-71
2022/06/11 03:52:35;;;;;;;5.60;3.77;;;15.60;71.30;;;;;;4877351;29;20447;-71
2022/06/11 03:55:03;;;;;;;9.30;4.43;;;15.60;71.30;;;;;;4879326;29;20458;-71
2022/06/11 03:57:31;;;;;;;7.87;3.83;;;15.60;71.40;;;;;;4877664;29;20494;-72
2022/06/11 03:59:59;;;;;;;8.57;3.60;;;15.60;71.40;;;;;;4859255;29;20494;-72
2022/06/11 04:02:28;;;;;;;8.60;4.10;;;15.60;71.50;;;;;;4871806;29;20476;-72
2022/06/11 04:04:56;;;;;;;6.37;3.70;;;15.60;71.60;;;;;;4883048;29;20453;-72
2022/06/11 04:07:24;;;;;;;7.80;4.17;;;15.60;71.70;;;;;;4884605;29;20471;-73
2022/06/11 04:09:53;;;;;;;8.00;3.70;;;15.60;71.70;;;;;;4880954;29;20482;-72
2022/06/11 04:12:21;;;;;;;7.53;4.03;;;15.60;71.80;;;;;;4878496;29;20494;-72
2022/06/11 04:14:50;;;;;;;7.70;3.87;;;15.70;72.00;;;;;;4880512;29;20472;-72
2022/06/11 04:17:26;;;;;;;11.67;4.20;;;15.70;72.00;;;;;;4859673;29;20921;-72
2022/06/11 04:19:54;;;;;;;7.40;3.53;;;15.80;72.00;;;;;;4875651;29;20482;-72
2022/06/11 04:22:22;;;;;;;10.90;3.60;;;15.90;72.10;;;;;;4870815;29;20475;-73
2022/06/11 04:24:51;;;;;;;6.47;2.90;;;15.90;72.00;;;;;;4887707;29;20953;-72
2022/06/11 04:27:21;;;;;;;6.10;3.60;;;15.90;72.00;;;;;;4880782;29;20474;-72
2022/06/11 04:29:53;;;;;;;8.63;3.90;;;16.00;72.00;;;;;;4886066;29;20482;-72
2022/06/11 04:32:22;;;;;;;7.00;3.80;;;16.00;72.10;;;;;;4872728;29;20481;-72
2022/06/11 04:34:51;;;;;;;6.07;3.20;;;16.00;72.30;;;;;;4882466;29;20466;-72
2022/06/11 04:37:22;;;;;;;6.77;3.80;;;16.10;72.40;;;;;;4876059;29;20469;-72
2022/06/11 04:39:52;;;;;;;8.03;3.70;;;16.10;72.50;;;;;;4875888;29;20493;-71
2022/06/11 04:42:23;;;;;;;7.47;4.20;;;16.10;72.50;;;;;;4877053;29;20473;-72
2022/06/11 04:44:51;;;;;;;6.70;3.33;;;16.20;72.60;;;;;;4885666;29;20842;-72
2022/06/11 04:47:24;;;;;;;7.83;3.67;;;16.20;72.70;;;;;;4879202;29;21039;-71
2022/06/11 04:49:54;;;;;;;8.10;4.30;;;16.30;72.80;;;;;;4877426;29;20668;-71
2022/06/11 04:52:23;;;;;;;6.23;3.90;;;16.30;72.80;;;;;;4879416;29;20534;-72
2022/06/11 04:54:51;;;;;;;5.70;3.13;;;16.40;72.90;;;;;;4876100;29;20454;-72
2022/06/11 04:57:20;;;;;;;9.00;4.40;;;16.40;73.00;;;;;;4875145;29;20459;-72
2022/06/11 04:59:49;;;;;;;5.53;3.47;;;16.50;73.10;;;;;;4876542;29;20501;-72
2022/06/11 05:02:17;;;;;;;7.90;3.60;;;16.60;73.20;;;;;;4881989;29;20486;-72
2022/06/11 05:04:45;;;;;;;6.93;4.13;;;16.60;73.30;;;;;;4863317;29;20467;-72
2022/06/11 05:07:13;;;;;;;7.43;3.80;;;16.70;73.30;;;;;;4884253;29;21254;-73
2022/06/11 05:09:41;;;;;;;5.33;3.63;;;16.80;73.40;;;;;;4878669;29;20474;-71
2022/06/11 05:12:11;;;;;;;7.87;4.70;;;16.80;73.60;;;;;;4879785;29;20462;-71
2022/06/11 05:14:40;;;;;;;8.13;4.33;;;16.90;73.70;;;;;;4877386;29;20452;-73
2022/06/11 05:17:11;;;;;;;7.40;4.23;;;16.90;73.70;;;;;;4873595;29;20478;-70
2022/06/11 05:19:40;;;;;;;10.43;4.70;;;16.90;73.70;;;;;;4859561;29;20538;-70
2022/06/11 05:22:09;;;;;;;11.23;4.43;;;17.00;73.90;;;;;;4862835;29;20470;-71
2022/06/11 05:24:38;;;;;;;7.30;5.10;;;17.00;74.10;;;;;;4886119;29;21021;-71
2022/06/11 05:27:08;;;;;;;8.10;5.27;;;17.10;74.30;;;;;;4875805;29;20926;-71
2022/06/11 05:29:47;;;;;;;10.87;5.40;;;17.10;74.40;;;;;;4879424;29;20847;-72
2022/06/11 05:32:17;;;;;;;7.67;4.67;;;17.20;74.40;;;;;;4872234;29;20494;-73
2022/06/11 05:34:46;;;;;;;8.60;4.87;;;17.20;74.50;;;;;;4878971;29;21022;-73
2022/06/11 05:37:14;;;;;;;7.10;4.60;;;17.30;74.60;;;;;;4856782;29;20490;-72
2022/06/11 05:39:43;;;;;;;8.40;4.90;;;17.40;74.80;;;;;;4872218;29;20506;-73
2022/06/11 05:42:11;;;;;;;8.30;5.03;;;17.40;74.80;;;;;;4882819;29;20450;-72
2022/06/11 05:44:39;;;;;;;9.57;5.17;;;17.60;75.10;;;;;;4876428;29;20451;-72
2022/06/11 05:47:11;;;;;;;8.40;5.17;;;17.70;74.80;;;;;;4882211;29;20561;-71
2022/06/11 05:49:45;;;;;;;8.70;5.30;;;17.80;74.60;;;;;;4875805;29;21032;-72
2022/06/11 05:52:17;;;;;;;9.30;5.10;;;17.80;74.60;;;;;;4884262;29;20473;-72
2022/06/11 05:54:47;;;;;;;7.70;4.87;;;17.80;74.60;;;;;;4876221;29;20472;-74
2022/06/11 05:57:20;;;;;;;11.50;4.97;;;17.80;74.60;;;;;;4871122;29;20479;-71
2022/06/11 05:59:52;;;;;;;8.63;4.90;;;18.00;74.80;;;;;;4863993;29;20490;-71
2022/06/11 06:02:23;;;;;;;7.30;4.90;;;18.00;74.60;;;;;;4882433;29;21124;-72
2022/06/11 06:04:53;;;;;;;9.97;4.73;;;18.10;74.50;;;;;;4882110;29;20475;-73
2022/06/11 06:07:21;;;;;;;7.37;4.33;;;18.20;74.50;;;;;;4869764;29;20570;-73
2022/06/11 06:09:49;;;;;;;7.50;4.80;;;18.20;74.40;;;;;;4875392;29;20482;-73
2022/06/11 06:12:17;;;;;;;8.30;4.80;;;18.20;74.50;;;;;;4871389;29;20487;-74
2022/06/11 06:14:46;;;;;;;8.67;5.27;;;18.30;74.40;;;;;;4874444;29;20470;-72
2022/06/11 06:17:14;;;;;;;7.10;4.80;;;18.30;74.40;;;;;;4874252;29;20489;-72
2022/06/11 06:20:01;;;;;;;7.47;4.33;;;18.40;74.30;;;;;;4879135;29;20567;-72
2022/06/11 06:22:29;;;;;;;9.37;4.60;;;18.40;74.30;;;;;;4881733;29;20511;-72
2022/06/11 06:24:57;;;;;;;9.13;4.50;;;18.40;74.20;;;;;;4883815;29;20466;-72
2022/06/11 06:27:25;;;;;;;6.80;4.00;;;18.50;74.10;;;;;;4876210;29;20952;-72
2022/06/11 06:29:53;;;;;;;6.67;4.17;;;18.50;73.90;;;;;;4880526;29;20485;-72
2022/06/11 06:32:21;;;;;;;10.87;4.60;;;18.50;73.80;;;;;;4874213;29;20471;-72
2022/06/11 06:34:49;;;;;;;7.40;4.00;;;18.50;73.90;;;;;;4876385;29;20474;-72
2022/06/11 06:37:18;;;;;;;6.47;4.20;;;18.60;74.00;;;;;;4875745;29;20992;-71
2022/06/11 06:39:46;;;;;;;6.27;3.73;;;18.70;74.10;;;;;;4884599;29;20493;-73
2022/06/11 06:42:14;;;;;;;8.00;4.10;;;18.70;74.00;;;;;;4882142;29;20457;-72
2022/06/11 06:44:45;;;;;;;7.80;4.30;;;18.90;74.00;;;;;;4876567;29;20468;-72
2022/06/11 06:47:13;;;;;;;6.73;3.93;;;18.90;73.90;;;;;;4880372;29;20476;-72
2022/06/11 06:49:41;;;;;;;8.17;4.60;;;19.00;73.90;;;;;;4877144;29;20994;-73
2022/06/11 06:52:09;;;;;;;7.87;4.20;;;19.10;73.80;;;;;;4872490;29;20466;-73
2022/06/11 06:54:39;;;;;;;9.60;4.10;;;19.20;73.80;;;;;;4875996;29;20451;-72
2022/06/11 06:57:06;;;;;;;8.27;4.50;;;19.30;73.70;;;;;;4876931;29;20456;-72
2022/06/11 06:59:34;;;;;;;6.30;4.00;;;19.40;73.70;;;;;;4876279;29;20489;-72
2022/06/11 07:02:03;;;;;;;8.60;4.00;;;19.50;73.70;;;;;;4879104;29;20471;-72
2022/06/11 07:04:31;;;;;;;7.20;3.93;;;19.50;73.60;;;;;;4881748;29;20482;-72
2022/06/11 07:06:59;;;;;;;7.37;4.27;;;19.60;73.60;;;;;;4877093;29;20460;-72
2022/06/11 07:09:27;;;;;;;7.90;5.10;;;19.70;73.60;;;;;;4878618;29;20481;-72
2022/06/11 07:11:57;;;;;;;10.17;4.83;;;19.70;73.40;;;;;;4868437;29;20558;-72
2022/06/11 07:14:25;;;;;;;8.20;4.27;;;19.80;73.30;;;;;;4878855;29;20453;-72
2022/06/11 07:16:56;;;;;;;6.83;3.90;;;19.90;73.30;;;;;;4883847;29;20479;-72
2022/06/11 07:19:30;;;;;;;10.57;5.10;;;19.90;73.30;;;;;;4885141;29;20494;-71
2022/06/11 07:22:04;;;;;;;8.10;4.00;;;20.00;73.20;;;;;;4884660;29;20469;-72
2022/06/11 07:24:38;;;;;;;7.10;3.90;;;20.00;73.20;;;;;;4880064;29;20464;-72
2022/06/11 07:27:11;;;;;;;9.07;4.07;;;20.10;73.10;;;;;;4879845;29;20472;-72
2022/06/11 07:29:42;;;;;;;8.63;3.63;;;20.20;73.10;;;;;;4881348;29;20470;-72
2022/06/11 07:32:14;;;;;;;8.80;4.23;;;20.20;73.10;;;;;;4876617;29;20482;-73
2022/06/11 07:34:42;;;;;;;7.80;3.90;;;20.30;73.20;;;;;;4864760;29;20475;-73
2022/06/11 07:37:11;;;;;;;8.33;3.67;;;20.40;73.10;;;;;;4886598;29;20466;-73
2022/06/11 07:39:39;;;;;;;9.00;3.37;;;20.40;73.10;;;;;;4885200;29;20485;-73
2022/06/11 07:42:10;;;;;;;7.63;4.00;;;20.50;73.00;;;;;;4883578;29;21063;-72
2022/06/11 07:44:39;;;;;;;6.27;3.43;;;20.50;72.90;;;;;;4881651;29;20465;-71
2022/06/11 07:47:07;;;;;;;8.17;3.60;;;20.60;72.90;;;;;;4879230;29;20483;-73
2022/06/11 07:49:35;;;;;;;8.57;2.83;;;20.80;72.80;;;;;;4880622;29;20859;-73
2022/06/11 07:52:05;;;;;;;6.30;2.70;;;20.80;72.70;;;;;;4879288;29;20843;-73
2022/06/11 07:54:34;;;;;;;6.10;3.07;;;20.90;72.50;;;;;;4876406;29;20459;-73
2022/06/11 07:57:02;;;;;;;6.43;3.10;;;21.00;72.30;;;;;;4880925;29;20944;-73
2022/06/11 07:59:37;;;;;;;9.20;3.00;;;21.00;72.20;;;;;;4880144;29;20540;-73
2022/06/11 08:02:06;;;;;;;6.03;2.63;;;21.10;72.00;;;;;;4884257;29;20480;-71
2022/06/11 08:04:34;;;;;;;7.80;2.80;;;21.20;71.80;;;;;;4877200;29;20507;-73
2022/06/11 08:07:02;;;;;;;5.40;3.03;;;21.20;71.50;;;;;;4879939;29;20456;-71
2022/06/11 08:09:30;;;;;;;6.20;3.00;;;21.30;71.30;;;;;;4875245;29;20495;-73
2022/06/11 08:11:58;;;;;;;9.10;2.83;;;21.30;70.90;;;;;;4872564;29;20490;-72
2022/06/11 08:14:26;;;;;;;5.13;2.40;;;21.30;70.60;;;;;;4880189;29;20515;-72
2022/06/11 08:16:56;;;;;;;7.87;2.70;;;21.40;70.40;;;;;;4881738;29;20497;-73
2022/06/11 08:19:24;;;;;;;7.20;2.27;;;21.40;70.30;;;;;;4887811;29;20486;-72
2022/06/11 08:21:51;;;;;;;6.30;2.83;;;21.40;70.10;;;;;;4877676;29;20492;-73
2022/06/11 08:24:19;;;;;;;8.17;2.80;;;21.40;70.00;;;;;;4880214;29;20454;-72
2022/06/11 08:26:47;;;;;;;8.27;2.70;;;21.40;69.80;;;;;;4877571;29;20547;-73
2022/06/11 08:29:15;;;;;;;8.03;2.50;;;21.50;69.60;;;;;;4874370;29;20480;-72
2022/06/11 08:31:43;;;;;;;5.53;2.40;;;21.50;69.40;;;;;;4873466;29;20492;-73
2022/06/11 08:34:13;;;;;;;9.13;2.27;;;21.50;69.10;;;;;;4884428;29;21036;-73
2022/06/11 08:36:41;;;;;;;5.40;2.30;;;21.60;69.00;;;;;;4886155;29;20552;-73
2022/06/11 08:39:09;;;;;;;6.20;2.60;;;21.60;68.90;;;;;;4870773;29;20484;-73
2022/06/11 08:41:37;;;;;;;7.47;2.60;;;21.60;68.60;;;;;;4881971;29;20500;-72
2022/06/11 08:44:08;;;;;;;6.10;2.33;;;21.70;68.40;;;;;;4885905;29;20472;-73
2022/06/11 08:46:38;;;;;;;8.80;3.03;;;21.70;68.30;;;;;;4887577;29;20478;-72
2022/06/11 08:49:22;;;;;;;7.70;3.17;;;21.80;68.00;;;;;;4888654;29;20510;-72
2022/06/11 08:51:55;;;;;;;7.87;3.07;;;21.80;67.80;;;;;;4894826;29;20458;-73
2022/06/11 08:54:26;;;;;;;5.07;2.03;;;21.90;68.20;;;;;;4888510;29;20465;-72
2022/06/11 08:56:59;;;;;;;5.67;2.43;;;22.00;68.10;;;;;;4894049;29;20497;-72
2022/06/11 08:59:53;;;;;;;5.93;1.93;;;22.00;67.90;;;;;;4889023;29;20485;-73
2022/06/11 09:02:36;;;;;;;6.63;2.13;;;22.10;67.60;;;;;;4882759;29;20471;-73
2022/06/11 09:05:27;;;;;;;4.43;1.73;;;22.10;67.10;;;;;;4886566;29;20554;-73
2022/06/11 09:08:06;;;;;;;5.20;1.70;;;22.20;66.60;;;;;;4891529;29;20470;-72
2022/06/11 09:11:00;;;;;;;4.03;1.30;;;22.20;66.30;;;;;;4885967;29;20829;-73
2022/06/11 09:14:00;;;;;;;6.00;1.80;;;22.20;66.20;;;;;;4864824;29;20955;-72
2022/06/11 09:16:42;;;;;;;7.40;2.03;;;22.30;65.80;;;;;;4869274;29;20495;-73
2022/06/11 09:19:23;;;;;;;5.90;1.70;;;22.30;64.90;;;;;;4880623;29;21015;-73
2022/06/11 09:22:03;;;;;;;4.70;1.70;;;22.30;65.00;;;;;;4886573;29;20493;-74
2022/06/11 09:24:52;;;;;;;4.63;1.60;;;22.30;64.70;;;;;;4892073;29;20468;-73
2022/06/11 09:27:26;;;;;;;11.43;2.80;;;22.30;64.70;;;;;;4881321;29;20473;-72
2022/06/11 09:30:03;;;;;;;4.77;3.20;;;22.30;64.00;;;;;;4890538;29;20977;-73
2022/06/11 09:32:35;;;;;;;7.27;1.83;;;22.40;64.40;;;;;;4884763;29;20470;-73
2022/06/11 09:35:09;;;;;;;8.17;1.90;;;22.40;64.20;;;;;;4882603;29;20480;-72
2022/06/11 09:37:47;;;;;;;4.93;2.30;;;22.50;64.20;;;;;;4886752;29;20463;-72
2022/06/11 09:40:25;;;;;;;5.93;2.07;;;22.60;63.90;;;;;;4891379;29;20480;-72
2022/06/11 09:43:03;;;;;;;9.37;2.50;;;22.60;63.70;;;;;;4887518;29;20505;-73
2022/06/11 09:45:37;;;;;;;5.50;1.83;;;22.60;63.30;;;;;;4882211;29;20482;-74
2022/06/11 09:48:21;;;;;;;5.60;2.20;;;22.70;63.10;;;;;;4858652;29;21016;-73
2022/06/11 09:50:52;;;;;;;6.60;2.30;;;22.70;63.10;;;;;;4886255;29;20457;-72
2022/06/11 09:53:44;;;;;;;6.93;2.27;;;22.70;63.00;;;;;;5122651;27;20551;-73
2022/06/11 09:56:25;;;;;;;6.80;2.33;;;22.80;63.10;;;;;;5124673;27;20462;-73
2022/06/11 09:59:01;;;;;;;5.60;2.30;;;22.80;63.30;;;;;;5098395;28;20949;-74
2022/06/11 10:01:33;;;;;;;6.53;2.20;;;22.80;63.40;;;;;;5112146;27;20992;-72
2022/06/11 10:04:06;;;;;;;5.97;2.37;;;22.80;63.50;;;;;;5061317;28;20454;-72
2022/06/11 10:06:40;;;;;;;6.27;2.20;;;22.80;63.50;;;;;;5086120;28;20866;-72
2022/06/11 10:09:17;;;;;;;5.87;2.13;;;22.80;63.40;;;;;;5086075;28;20499;-73
2022/06/11 10:11:49;;;;;;;5.80;2.13;;;22.90;63.40;;;;;;5084556;28;20506;-74
2022/06/11 10:14:29;;;;;;;5.33;2.30;;;22.90;63.40;;;;;;5083357;28;20536;-73
2022/06/11 10:17:04;;;;;;;8.37;2.20;;;23.00;63.40;;;;;;5061548;28;20536;-73
2022/06/11 10:19:41;;;;;;;4.37;1.80;;;23.10;63.10;;;;;;5068737;28;20469;-73
2022/06/11 10:22:17;;;;;;;6.07;2.07;;;23.10;63.00;;;;;;5061264;28;20827;-73
2022/06/11 10:25:01;;;;;;;4.50;2.03;;;23.20;63.00;;;;;;5067695;28;20940;-73
2022/06/11 10:27:36;;;;;;;8.47;2.30;;;23.20;62.80;;;;;;5071995;28;20453;-73
2022/06/11 10:30:17;;;;;;;7.60;2.00;;;23.20;62.80;;;;;;5066392;28;20464;-73
2022/06/11 10:32:49;;;;;;;7.63;2.30;;;23.30;62.60;;;;;;5084971;28;21019;-73
2022/06/11 10:35:22;;;;;;;5.73;1.83;;;23.30;62.40;;;;;;5084321;28;20453;-73
2022/06/11 10:37:57;;;;;;;9.37;2.67;;;23.40;62.30;;;;;;5085471;28;20457;-73
2022/06/11 10:40:34;;;;;;;9.67;2.73;;;23.40;61.60;;;;;;5085685;28;20872;-73
2022/06/11 10:43:08;;;;;;;5.03;2.10;;;23.50;61.90;;;;;;5085308;28;20529;-73
2022/06/11 10:45:37;;;;;;;4.77;1.80;;;23.50;61.70;;;;;;5082631;27;20493;-73
2022/06/11 10:48:14;;;;;;;4.93;2.20;;;23.50;61.70;;;;;;5085214;28;20442;-73
2022/06/11 10:50:42;;;;;;;5.93;2.47;;;23.50;61.70;;;;;;5085510;28;20832;-73
2022/06/11 10:53:18;;;;;;;5.57;2.37;;;23.50;61.80;;;;;;5085155;28;20952;-73
2022/06/11 10:55:50;;;;;;;5.10;1.70;;;23.50;61.50;;;;;;5084471;28;20445;-73
2022/06/11 10:58:26;;;;;;;4.73;1.87;;;23.60;61.40;;;;;;5085278;28;20998;-73
2022/06/11 11:00:58;;;;;;;5.93;1.90;;;23.60;61.10;;;;;;5083881;28;20486;-72
2022/06/11 11:03:35;;;;;;;5.27;2.00;;;23.60;61.20;;;;;;5079561;28;20443;-72
2022/06/11 11:06:07;;;;;;;6.07;1.83;;;23.80;61.20;;;;;;5063720;28;20984;-72
2022/06/11 11:08:37;;;;;;;5.70;2.13;;;23.80;61.20;;;;;;5087278;28;20913;-72
2022/06/11 11:11:10;;;;;;;9.23;2.50;;;23.80;61.10;;;;;;5071466;28;20450;-72
2022/06/11 11:13:41;;;;;;;5.60;2.00;;;23.90;61.40;;;;;;5071394;28;20494;-72
2022/06/11 11:16:19;;;;;;;4.90;1.83;;;23.90;61.30;;;;;;5071240;28;20590;-72
2022/06/11 11:19:01;;;;;;;5.40;2.03;;;24.00;61.30;;;;;;5070606;28;20517;-74
2022/06/11 11:21:34;;;;;;;5.70;1.97;;;24.10;61.10;;;;;;5071238;28;20610;-72
2022/06/11 11:24:08;;;;;;;5.93;1.77;;;24.10;60.90;;;;;;5064694;28;20444;-73
2022/06/11 11:26:46;;;;;;;5.33;2.17;;;24.10;60.70;;;;;;5070936;28;20459;-73
2022/06/11 11:29:19;;;;;;;6.87;2.40;;;24.20;61.00;;;;;;5070205;28;20834;-73
2022/06/11 11:31:49;;;;;;;7.03;2.00;;;24.30;60.70;;;;;;5068629;28;20488;-73
2022/06/11 11:34:25;;;;;;;4.90;1.77;;;24.50;60.60;;;;;;5070425;28;20555;-72
2022/06/11 11:36:58;;;;;;;6.70;1.80;;;24.60;60.50;;;;;;5070966;28;20457;-72
2022/06/11 11:39:30;;;;;;;5.30;2.30;;;24.70;60.40;;;;;;5071206;28;21160;-73
2022/06/11 11:42:11;;;;;;;5.03;2.40;;;24.70;60.40;;;;;;5070222;28;20479;-74
2022/06/11 11:44:46;;;;;;;3.70;1.40;;;24.80;60.20;;;;;;5070732;28;20468;-75
2022/06/11 11:47:20;;;;;;;7.70;2.40;;;24.80;59.80;;;;;;5068534;28;20480;-74
2022/06/11 11:49:54;;;;;;;3.93;1.53;;;24.80;59.70;;;;;;5070485;28;20833;-74
2022/06/11 11:52:25;;;;;;;5.10;1.40;;;24.80;59.80;;;;;;5070335;28;20490;-74
2022/06/11 11:54:58;;;;;;;4.30;1.50;;;24.80;59.70;;;;;;5070629;28;20461;-74
2022/06/11 11:57:32;;;;;;;4.93;1.87;;;24.80;59.80;;;;;;5086180;28;20460;-74
2022/06/11 12:00:04;;;;;;;4.73;1.47;;;24.80;59.80;;;;;;5069513;28;20839;-74
2022/06/11 12:02:43;;;;;;;4.40;1.33;;;24.70;59.70;;;;;;5069782;28;20491;-74
2022/06/11 12:05:18;;;;;;;4.30;1.43;;;24.70;59.70;;;;;;5069576;28;20459;-74
2022/06/11 12:07:48;;;;;;;6.30;1.80;;;24.70;59.60;;;;;;5070276;28;20475;-73
2022/06/11 12:10:32;;;;;;;3.57;1.30;;;24.60;59.60;;;;;;5069692;28;20476;-74
2022/06/11 12:13:02;;;;;;;3.90;1.40;;;24.60;59.50;;;;;;5065845;28;20477;-74
2022/06/11 12:15:31;;;;;;;4.13;1.33;;;24.70;59.50;;;;;;5067143;28;20845;-74
2022/06/11 12:18:03;;;;;;;4.63;2.10;;;24.60;59.50;;;;;;5062269;28;20463;-74
2022/06/11 12:20:40;;;;;;;5.50;1.30;;;24.70;59.50;;;;;;5066511;28;20476;-74
2022/06/11 12:23:25;;;;;;;4.97;1.40;;;24.70;59.50;;;;;;5064080;28;20948;-73
2022/06/11 12:25:59;;;;;;;5.43;1.50;;;24.80;59.40;;;;;;5068869;28;20474;-71
2022/06/11 12:28:33;;;;;;;5.53;1.30;;;24.90;59.30;;;;;;5069770;28;20448;-73
2022/06/11 12:31:01;;;;;;;5.70;1.60;;;24.90;59.10;;;;;;5084848;28;20478;-73
2022/06/11 12:33:29;;;;;;;4.07;1.90;;;25.00;58.70;;;;;;5068462;28;20487;-73
2022/06/11 12:36:06;;;;;;;7.00;1.90;;;25.10;58.70;;;;;;5069925;28;20455;-73
2022/06/11 12:38:44;;;;;;;4.20;1.40;;;25.20;58.60;;;;;;5069385;28;20483;-73
2022/06/11 12:41:22;;;;;;;5.90;1.70;;;25.30;58.40;;;;;;5069254;28;20452;-71
2022/06/11 12:43:58;;;;;;;4.57;1.60;;;25.30;58.20;;;;;;5069197;28;20467;-73
2022/06/11 12:46:37;;;;;;;4.23;1.40;;;25.40;58.20;;;;;;5063901;28;20463;-73
2022/06/11 12:49:15;;;;;;;6.53;1.63;;;25.40;58.10;;;;;;5067070;28;20473;-72
2022/06/11 12:51:57;;;;;;;3.90;1.17;;;25.40;58.00;;;;;;5067342;28;21008;-72
2022/06/11 12:54:36;;;;;;;4.37;1.13;;;25.40;57.60;;;;;;5068578;28;20519;-73
2022/06/11 12:57:18;;;;;;;3.97;1.33;;;25.40;57.60;;;;;;5063372;28;20461;-71
2022/06/11 13:00:05;;;;;;;5.60;1.40;;;25.30;57.70;;;;;;5068230;28;20487;-72
2022/06/11 13:02:48;;;;;;;4.00;1.07;;;25.30;57.60;;;;;;5065984;28;20489;-72
2022/06/11 13:05:39;;;;;;;4.27;1.20;;;25.40;57.60;;;;;;5065863;28;20475;-73
2022/06/11 13:08:26;;;;;;;4.80;1.90;;;25.50;57.70;;;;;;5065478;28;20488;-73
2022/06/11 13:11:01;;;;;;;4.20;1.43;;;25.60;57.50;;;;;;5068384;28;20899;-75
2022/06/11 13:14:04;;;;;;;3.77;1.30;;;25.70;57.10;;;;;;5069029;28;20468;-74
2022/06/11 13:16:42;;;;;;;3.47;1.03;;;25.70;57.30;;;;;;5030327;28;20583;-72